sensor_id;sensor_type;location;lat;lon;timestamp;temperature;humidity
23207;DHT22;11773;52.570;13.052;2023-03-14T00:01:33;12.80;99.90
23207;DHT22;11773;52.570;13.052;2023-03-14T00:04:04;12.80;99.90
23207;DHT22;11773;52.570;13.052;2023-03-14T00:06:35;12.80;99.90
23207;DHT22;11773;52.570;13.052;2023-03-14T00:09:04;12.70;99.90
23207;DHT22;11773;52.570;13.052;2023-03-14T00:11:34;12.70;99.90
23207;DHT22;11773;52.570;13.052;2023-03-14T00:14:04;12.60;99.90
23207;DHT22;11773;52.570;13.052;2023-03-14T00:16:33;12.60;99.90
23207;DHT22;11773;52.570;13.052;2023-03-14T00:19:03;12.70;99.90
23207;DHT22;11773;52.570;13.052;2023-03-14T00:21:52;12.80;99.90
23207;DHT22;11773;52.570;13.052;2023-03-14T00:24:22;12.70;99.90
23207;DHT22;11773;52.570;13.052;2023-03-14T00:26:51;12.60;99.90
23207;DHT22;11773;52.570;13.052;2023-03-14T00:29:20;12.70;99.90
23207;DHT22;11773;52.570;13.052;2023-03-14T00:31:50;12.70;99.90
23207;DHT22;11773;52.570;13.052;2023-03-14T00:34:20;12.60;99.90
23207;DHT22;11773;52.570;13.052;2023-03-14T00:36:50;12.60;99.90
23207;DHT22;11773;52.570;13.052;2023-03-14T00:39:19;12.50;99.90
23207;DHT22;11773;52.570;13.052;2023-03-14T00:41:49;12.60;99.90
23207;DHT22;11773;52.570;13.052;2023-03-14T00:44:18;12.70;99.90
23207;DHT22;11773;52.570;13.052;2023-03-14T00:46:48;12.50;99.90
23207;DHT22;11773;52.570;13.052;2023-03-14T00:49:18;12.50;99.90
23207;DHT22;11773;52.570;13.052;2023-03-14T00:51:47;12.50;99.90
23207;DHT22;11773;52.570;13.052;2023-03-14T00:54:17;12.40;99.90
23207;DHT22;11773;52.570;13.052;2023-03-14T00:56:47;12.40;99.90
23207;DHT22;11773;52.570;13.052;2023-03-14T00:59:17;12.30;99.90
23207;DHT22;11773;52.570;13.052;2023-03-14T01:01:46;12.30;99.90
23207;DHT22;11773;52.570;13.052;2023-03-14T01:04:16;12.40;99.90
23207;DHT22;11773;52.570;13.052;2023-03-14T01:06:45;12.30;99.90
23207;DHT22;11773;52.570;13.052;2023-03-14T01:09:15;12.30;99.90
23207;DHT22;11773;52.570;13.052;2023-03-14T01:11:45;12.10;99.90
23207;DHT22;11773;52.570;13.052;2023-03-14T01:14:14;12.10;99.90
23207;DHT22;11773;52.570;13.052;2023-03-14T01:16:44;12.30;99.90
23207;DHT22;11773;52.570;13.052;2023-03-14T01:19:13;12.10;99.90
23207;DHT22;11773;52.570;13.052;2023-03-14T01:21:43;12.10;99.90
23207;DHT22;11773;52.570;13.052;2023-03-14T01:24:12;12.10;99.90
23207;DHT22;11773;52.570;13.052;2023-03-14T01:26:41;12.00;99.90
23207;DHT22;11773;52.570;13.052;2023-03-14T01:29:11;12.00;99.90
23207;DHT22;11773;52.570;13.052;2023-03-14T01:31:40;12.00;99.90
23207;DHT22;11773;52.570;13.052;2023-03-14T01:34:10;12.00;99.90
23207;DHT22;11773;52.570;13.052;2023-03-14T01:36:39;12.00;99.90
23207;DHT22;11773;52.570;13.052;2023-03-14T01:39:09;12.00;99.90
23207;DHT22;11773;52.570;13.052;2023-03-14T01:41:39;12.20;99.90
23207;DHT22;11773;52.570;13.052;2023-03-14T01:44:11;12.10;99.90
23207;DHT22;11773;52.570;13.052;2023-03-14T01:46:48;12.00;99.90
23207;DHT22;11773;52.570;13.052;2023-03-14T01:52:21;12.00;99.90
23207;DHT22;11773;52.570;13.052;2023-03-14T01:55:07;12.00;99.90
23207;DHT22;11773;52.570;13.052;2023-03-14T01:57:47;12.00;99.90
23207;DHT22;11773;52.570;13.052;2023-03-14T02:00:21;12.00;99.90
23207;DHT22;11773;52.570;13.052;2023-03-14T02:02:56;12.10;99.90
23207;DHT22;11773;52.570;13.052;2023-03-14T02:05:32;12.00;99.90
23207;DHT22;11773;52.570;13.052;2023-03-14T02:08:10;12.10;99.90
23207;DHT22;11773;52.570;13.052;2023-03-14T02:10:48;11.90;99.90
23207;DHT22;11773;52.570;13.052;2023-03-14T02:13:19;12.00;99.90
23207;DHT22;11773;52.570;13.052;2023-03-14T02:15:50;12.00;99.90
23207;DHT22;11773;52.570;13.052;2023-03-14T02:18:20;12.00;99.90
23207;DHT22;11773;52.570;13.052;2023-03-14T02:21:00;12.10;99.90
23207;DHT22;11773;52.570;13.052;2023-03-14T02:24:04;12.00;99.90
23207;DHT22;11773;52.570;13.052;2023-03-14T02:26:43;12.00;99.90
23207;DHT22;11773;52.570;13.052;2023-03-14T02:29:31;12.00;99.90
23207;DHT22;11773;52.570;13.052;2023-03-14T02:32:03;11.90;99.90
23207;DHT22;11773;52.570;13.052;2023-03-14T02:34:34;11.90;99.90
23207;DHT22;11773;52.570;13.052;2023-03-14T02:37:05;11.90;99.90
23207;DHT22;11773;52.570;13.052;2023-03-14T02:39:40;11.90;99.90
23207;DHT22;11773;52.570;13.052;2023-03-14T02:42:13;12.00;99.90
23207;DHT22;11773;52.570;13.052;2023-03-14T02:47:54;12.00;99.90
23207;DHT22;11773;52.570;13.052;2023-03-14T02:50:29;12.00;99.90
23207;DHT22;11773;52.570;13.052;2023-03-14T02:53:01;11.90;99.90
23207;DHT22;11773;52.570;13.052;2023-03-14T02:55:30;12.00;99.90
23207;DHT22;11773;52.570;13.052;2023-03-14T02:57:59;12.10;99.90
23207;DHT22;11773;52.570;13.052;2023-03-14T03:00:29;11.90;99.90
23207;DHT22;11773;52.570;13.052;2023-03-14T03:02:58;12.00;99.90
23207;DHT22;11773;52.570;13.052;2023-03-14T03:05:28;11.90;99.90
23207;DHT22;11773;52.570;13.052;2023-03-14T03:07:57;12.00;99.90
23207;DHT22;11773;52.570;13.052;2023-03-14T03:10:28;11.90;99.90
23207;DHT22;11773;52.570;13.052;2023-03-14T03:12:58;12.00;99.90
23207;DHT22;11773;52.570;13.052;2023-03-14T03:15:27;12.00;99.90
23207;DHT22;11773;52.570;13.052;2023-03-14T03:17:57;11.90;99.90
23207;DHT22;11773;52.570;13.052;2023-03-14T03:20:26;11.90;99.90
23207;DHT22;11773;52.570;13.052;2023-03-14T03:22:56;12.00;99.90
23207;DHT22;11773;52.570;13.052;2023-03-14T03:25:27;11.90;99.90
23207;DHT22;11773;52.570;13.052;2023-03-14T03:27:57;11.90;99.90
23207;DHT22;11773;52.570;13.052;2023-03-14T03:30:27;11.80;99.90
23207;DHT22;11773;52.570;13.052;2023-03-14T03:32:56;11.80;99.90
23207;DHT22;11773;52.570;13.052;2023-03-14T03:35:26;11.80;99.90
23207;DHT22;11773;52.570;13.052;2023-03-14T03:37:55;11.80;99.90
23207;DHT22;11773;52.570;13.052;2023-03-14T03:40:53;11.90;99.90
23207;DHT22;11773;52.570;13.052;2023-03-14T03:43:22;11.80;99.90
23207;DHT22;11773;52.570;13.052;2023-03-14T03:45:52;11.80;99.90
23207;DHT22;11773;52.570;13.052;2023-03-14T03:48:22;11.80;99.90
23207;DHT22;11773;52.570;13.052;2023-03-14T03:50:51;11.70;99.90
23207;DHT22;11773;52.570;13.052;2023-03-14T03:53:21;11.70;99.90
23207;DHT22;11773;52.570;13.052;2023-03-14T03:55:52;11.70;99.90
23207;DHT22;11773;52.570;13.052;2023-03-14T03:58:22;11.70;99.90
23207;DHT22;11773;52.570;13.052;2023-03-14T04:00:51;11.70;99.90
23207;DHT22;11773;52.570;13.052;2023-03-14T04:03:21;11.60;99.90
23207;DHT22;11773;52.570;13.052;2023-03-14T04:06:02;11.70;99.90
23207;DHT22;11773;52.570;13.052;2023-03-14T04:08:33;11.70;99.90
23207;DHT22;11773;52.570;13.052;2023-03-14T04:11:03;11.70;99.90
23207;DHT22;11773;52.570;13.052;2023-03-14T04:13:33;11.70;99.90
23207;DHT22;11773;52.570;13.052;2023-03-14T04:16:03;11.60;99.90
23207;DHT22;11773;52.570;13.052;2023-03-14T04:18:34;11.50;99.90
23207;DHT22;11773;52.570;13.052;2023-03-14T04:21:03;11.60;99.90
23207;DHT22;11773;52.570;13.052;2023-03-14T04:23:33;11.70;99.90
23207;DHT22;11773;52.570;13.052;2023-03-14T04:26:03;11.70;99.90
23207;DHT22;11773;52.570;13.052;2023-03-14T04:28:33;11.60;99.90
23207;DHT22;11773;52.570;13.052;2023-03-14T04:33:47;11.70;99.90
23207;DHT22;11773;52.570;13.052;2023-03-14T04:36:17;11.70;99.90
23207;DHT22;11773;52.570;13.052;2023-03-14T04:38:46;11.60;99.90
23207;DHT22;11773;52.570;13.052;2023-03-14T04:41:15;11.50;99.90
23207;DHT22;11773;52.570;13.052;2023-03-14T04:43:45;11.50;99.90
23207;DHT22;11773;52.570;13.052;2023-03-14T04:46:14;11.50;99.90
23207;DHT22;11773;52.570;13.052;2023-03-14T04:48:44;11.70;99.90
23207;DHT22;11773;52.570;13.052;2023-03-14T04:51:13;11.60;99.90
23207;DHT22;11773;52.570;13.052;2023-03-14T04:53:43;11.50;99.90
23207;DHT22;11773;52.570;13.052;2023-03-14T04:56:12;11.60;99.90
23207;DHT22;11773;52.570;13.052;2023-03-14T04:58:42;11.60;99.90
23207;DHT22;11773;52.570;13.052;2023-03-14T05:01:12;11.50;99.90
23207;DHT22;11773;52.570;13.052;2023-03-14T05:03:41;11.50;99.90
23207;DHT22;11773;52.570;13.052;2023-03-14T05:06:11;11.60;99.90
23207;DHT22;11773;52.570;13.052;2023-03-14T05:08:40;11.60;99.90
23207;DHT22;11773;52.570;13.052;2023-03-14T05:11:10;11.60;99.90
23207;DHT22;11773;52.570;13.052;2023-03-14T05:13:40;11.60;99.90
23207;DHT22;11773;52.570;13.052;2023-03-14T05:16:10;11.70;99.90
23207;DHT22;11773;52.570;13.052;2023-03-14T05:18:40;11.60;99.90
23207;DHT22;11773;52.570;13.052;2023-03-14T05:21:09;11.70;99.90
23207;DHT22;11773;52.570;13.052;2023-03-14T05:23:39;11.70;99.90
23207;DHT22;11773;52.570;13.052;2023-03-14T05:26:08;11.70;99.90
23207;DHT22;11773;52.570;13.052;2023-03-14T05:28:38;11.60;99.90
23207;DHT22;11773;52.570;13.052;2023-03-14T05:31:08;11.70;99.90
23207;DHT22;11773;52.570;13.052;2023-03-14T05:33:38;11.50;99.90
23207;DHT22;11773;52.570;13.052;2023-03-14T05:36:08;11.50;99.90
23207;DHT22;11773;52.570;13.052;2023-03-14T05:38:38;11.60;99.90
23207;DHT22;11773;52.570;13.052;2023-03-14T05:41:08;11.50;99.90
23207;DHT22;11773;52.570;13.052;2023-03-14T05:43:37;11.50;99.90
23207;DHT22;11773;52.570;13.052;2023-03-14T05:46:06;11.60;99.90
23207;DHT22;11773;52.570;13.052;2023-03-14T05:48:36;11.50;99.90
23207;DHT22;11773;52.570;13.052;2023-03-14T05:51:06;11.50;99.90
23207;DHT22;11773;52.570;13.052;2023-03-14T05:53:35;11.60;99.90
23207;DHT22;11773;52.570;13.052;2023-03-14T05:56:05;11.50;99.90
23207;DHT22;11773;52.570;13.052;2023-03-14T05:58:35;11.50;99.90
23207;DHT22;11773;52.570;13.052;2023-03-14T06:01:06;11.40;99.90
23207;DHT22;11773;52.570;13.052;2023-03-14T06:03:36;11.60;99.90
23207;DHT22;11773;52.570;13.052;2023-03-14T06:06:05;11.50;99.90
23207;DHT22;11773;52.570;13.052;2023-03-14T06:08:35;11.50;99.90
23207;DHT22;11773;52.570;13.052;2023-03-14T06:11:04;11.50;99.90
23207;DHT22;11773;52.570;13.052;2023-03-14T06:13:34;11.50;99.90
23207;DHT22;11773;52.570;13.052;2023-03-14T06:16:04;11.50;99.90
23207;DHT22;11773;52.570;13.052;2023-03-14T06:18:34;11.50;99.90
23207;DHT22;11773;52.570;13.052;2023-03-14T06:21:03;11.60;99.90
23207;DHT22;11773;52.570;13.052;2023-03-14T06:23:33;11.50;99.90
23207;DHT22;11773;52.570;13.052;2023-03-14T06:26:02;11.60;99.90
23207;DHT22;11773;52.570;13.052;2023-03-14T06:28:32;11.60;99.90
23207;DHT22;11773;52.570;13.052;2023-03-14T06:31:01;11.70;99.90
23207;DHT22;11773;52.570;13.052;2023-03-14T06:33:31;11.70;99.90
23207;DHT22;11773;52.570;13.052;2023-03-14T06:36:00;11.70;99.90
23207;DHT22;11773;52.570;13.052;2023-03-14T06:38:30;11.70;99.90
23207;DHT22;11773;52.570;13.052;2023-03-14T06:41:06;11.70;99.90
23207;DHT22;11773;52.570;13.052;2023-03-14T06:43:36;11.80;99.90
23207;DHT22;11773;52.570;13.052;2023-03-14T06:46:06;11.90;99.90
23207;DHT22;11773;52.570;13.052;2023-03-14T06:48:35;11.90;99.90
23207;DHT22;11773;52.570;13.052;2023-03-14T06:51:05;12.00;99.90
23207;DHT22;11773;52.570;13.052;2023-03-14T06:53:34;12.10;99.90
23207;DHT22;11773;52.570;13.052;2023-03-14T06:56:04;12.00;99.90
23207;DHT22;11773;52.570;13.052;2023-03-14T06:58:34;12.20;99.90
23207;DHT22;11773;52.570;13.052;2023-03-14T07:01:03;12.50;99.90
23207;DHT22;11773;52.570;13.052;2023-03-14T07:03:33;12.80;99.90
23207;DHT22;11773;52.570;13.052;2023-03-14T07:06:02;12.80;99.90
23207;DHT22;11773;52.570;13.052;2023-03-14T07:08:32;12.70;99.90
23207;DHT22;11773;52.570;13.052;2023-03-14T07:11:01;12.70;99.90
23207;DHT22;11773;52.570;13.052;2023-03-14T07:13:31;12.70;99.90
23207;DHT22;11773;52.570;13.052;2023-03-14T07:16:00;12.60;99.90
23207;DHT22;11773;52.570;13.052;2023-03-14T07:18:30;12.60;99.90
23207;DHT22;11773;52.570;13.052;2023-03-14T07:20:59;12.80;99.90
23207;DHT22;11773;52.570;13.052;2023-03-14T07:23:29;12.80;99.90
23207;DHT22;11773;52.570;13.052;2023-03-14T07:25:58;12.80;99.90
23207;DHT22;11773;52.570;13.052;2023-03-14T07:28:28;12.90;99.90
23207;DHT22;11773;52.570;13.052;2023-03-14T07:30:57;12.70;99.90
23207;DHT22;11773;52.570;13.052;2023-03-14T07:33:27;12.80;99.90
23207;DHT22;11773;52.570;13.052;2023-03-14T07:35:56;12.90;99.90
23207;DHT22;11773;52.570;13.052;2023-03-14T07:38:26;13.10;99.90
23207;DHT22;11773;52.570;13.052;2023-03-14T07:41:00;13.20;99.90
23207;DHT22;11773;52.570;13.052;2023-03-14T07:43:31;13.40;99.90
23207;DHT22;11773;52.570;13.052;2023-03-14T07:46:01;13.40;99.90
23207;DHT22;11773;52.570;13.052;2023-03-14T07:48:31;13.60;99.90
23207;DHT22;11773;52.570;13.052;2023-03-14T07:51:01;13.60;99.90
23207;DHT22;11773;52.570;13.052;2023-03-14T07:53:30;13.70;99.90
23207;DHT22;11773;52.570;13.052;2023-03-14T07:55:59;13.80;99.90
23207;DHT22;11773;52.570;13.052;2023-03-14T07:58:29;13.80;99.90
23207;DHT22;11773;52.570;13.052;2023-03-14T08:00:59;13.80;99.90
23207;DHT22;11773;52.570;13.052;2023-03-14T08:03:28;13.70;99.90
23207;DHT22;11773;52.570;13.052;2023-03-14T08:05:58;13.60;99.90
23207;DHT22;11773;52.570;13.052;2023-03-14T08:08:27;13.60;99.90
23207;DHT22;11773;52.570;13.052;2023-03-14T08:11:04;13.50;99.90
23207;DHT22;11773;52.570;13.052;2023-03-14T08:13:37;13.50;99.90
23207;DHT22;11773;52.570;13.052;2023-03-14T08:16:07;13.30;99.90
23207;DHT22;11773;52.570;13.052;2023-03-14T08:18:37;13.30;99.90
23207;DHT22;11773;52.570;13.052;2023-03-14T08:21:06;13.40;99.90
23207;DHT22;11773;52.570;13.052;2023-03-14T08:23:36;13.30;99.90
23207;DHT22;11773;52.570;13.052;2023-03-14T08:26:06;13.40;99.90
23207;DHT22;11773;52.570;13.052;2023-03-14T08:28:35;13.30;99.90
23207;DHT22;11773;52.570;13.052;2023-03-14T08:31:05;13.30;99.90
23207;DHT22;11773;52.570;13.052;2023-03-14T08:33:35;13.30;99.90
23207;DHT22;11773;52.570;13.052;2023-03-14T08:36:04;13.30;99.90
23207;DHT22;11773;52.570;13.052;2023-03-14T08:38:34;13.30;99.90
23207;DHT22;11773;52.570;13.052;2023-03-14T08:41:04;13.40;99.90
23207;DHT22;11773;52.570;13.052;2023-03-14T08:43:33;13.50;99.90
23207;DHT22;11773;52.570;13.052;2023-03-14T08:46:03;13.60;99.90
23207;DHT22;11773;52.570;13.052;2023-03-14T08:48:33;13.70;99.90
23207;DHT22;11773;52.570;13.052;2023-03-14T08:51:13;13.80;99.90
23207;DHT22;11773;52.570;13.052;2023-03-14T08:53:40;13.90;99.90
23207;DHT22;11773;52.570;13.052;2023-03-14T08:56:10;13.90;99.90
23207;DHT22;11773;52.570;13.052;2023-03-14T08:58:39;14.00;99.90
23207;DHT22;11773;52.570;13.052;2023-03-14T09:01:10;14.00;99.90
23207;DHT22;11773;52.570;13.052;2023-03-14T09:03:40;14.00;99.90
23207;DHT22;11773;52.570;13.052;2023-03-14T09:06:10;14.00;99.90
23207;DHT22;11773;52.570;13.052;2023-03-14T09:08:39;14.20;99.90
23207;DHT22;11773;52.570;13.052;2023-03-14T09:11:09;14.20;99.90
23207;DHT22;11773;52.570;13.052;2023-03-14T09:13:38;14.30;99.90
23207;DHT22;11773;52.570;13.052;2023-03-14T09:16:08;14.40;99.90
23207;DHT22;11773;52.570;13.052;2023-03-14T09:18:38;14.60;99.90
23207;DHT22;11773;52.570;13.052;2023-03-14T09:21:07;14.70;99.90
23207;DHT22;11773;52.570;13.052;2023-03-14T09:23:37;14.80;99.90
23207;DHT22;11773;52.570;13.052;2023-03-14T09:26:07;14.90;99.90
23207;DHT22;11773;52.570;13.052;2023-03-14T09:28:37;14.90;99.90
23207;DHT22;11773;52.570;13.052;2023-03-14T09:31:08;14.90;99.90
23207;DHT22;11773;52.570;13.052;2023-03-14T09:33:38;14.80;99.90
23207;DHT22;11773;52.570;13.052;2023-03-14T09:36:09;14.80;99.90
23207;DHT22;11773;52.570;13.052;2023-03-14T09:38:38;14.80;99.90
23207;DHT22;11773;52.570;13.052;2023-03-14T09:41:28;14.90;99.90
23207;DHT22;11773;52.570;13.052;2023-03-14T09:44:16;14.80;99.90
23207;DHT22;11773;52.570;13.052;2023-03-14T09:46:50;14.80;99.90
23207;DHT22;11773;52.570;13.052;2023-03-14T09:49:37;14.80;99.90
23207;DHT22;11773;52.570;13.052;2023-03-14T09:52:05;14.90;99.90
23207;DHT22;11773;52.570;13.052;2023-03-14T09:54:43;14.90;99.90
23207;DHT22;11773;52.570;13.052;2023-03-14T09:57:19;15.00;99.90
23207;DHT22;11773;52.570;13.052;2023-03-14T09:59:53;15.10;99.90
23207;DHT22;11773;52.570;13.052;2023-03-14T10:02:28;15.10;99.90
23207;DHT22;11773;52.570;13.052;2023-03-14T10:05:07;15.10;99.90
23207;DHT22;11773;52.570;13.052;2023-03-14T10:07:46;15.00;99.90
23207;DHT22;11773;52.570;13.052;2023-03-14T10:10:21;14.80;99.90
23207;DHT22;11773;52.570;13.052;2023-03-14T10:12:57;14.80;99.90
23207;DHT22;11773;52.570;13.052;2023-03-14T10:15:33;14.70;99.90
23207;DHT22;11773;52.570;13.052;2023-03-14T10:18:05;14.70;99.90
23207;DHT22;11773;52.570;13.052;2023-03-14T10:20:43;14.70;99.90
23207;DHT22;11773;52.570;13.052;2023-03-14T10:26:07;14.60;99.90
23207;DHT22;11773;52.570;13.052;2023-03-14T10:28:47;14.70;99.90
23207;DHT22;11773;52.570;13.052;2023-03-14T10:31:24;14.70;99.90
23207;DHT22;11773;52.570;13.052;2023-03-14T10:34:01;14.70;99.90
23207;DHT22;11773;52.570;13.052;2023-03-14T10:36:34;14.60;99.90
23207;DHT22;11773;52.570;13.052;2023-03-14T10:42:29;14.50;99.90
23207;DHT22;11773;52.570;13.052;2023-03-14T10:44:42;14.70;99.90
23207;DHT22;11773;52.570;13.052;2023-03-14T10:47:18;14.70;99.90
23207;DHT22;11773;52.570;13.052;2023-03-14T10:49:50;14.60;99.90
23207;DHT22;11773;52.570;13.052;2023-03-14T10:52:22;14.50;99.90
23207;DHT22;11773;52.570;13.052;2023-03-14T10:55:03;14.50;99.90
23207;DHT22;11773;52.570;13.052;2023-03-14T10:57:29;14.50;99.90
23207;DHT22;11773;52.570;13.052;2023-03-14T10:59:59;14.60;99.90
23207;DHT22;11773;52.570;13.052;2023-03-14T11:02:40;14.50;99.90
23207;DHT22;11773;52.570;13.052;2023-03-14T11:05:21;14.60;99.90
23207;DHT22;11773;52.570;13.052;2023-03-14T11:07:58;14.60;99.90
23207;DHT22;11773;52.570;13.052;2023-03-14T11:10:33;14.60;99.90
23207;DHT22;11773;52.570;13.052;2023-03-14T11:13:25;14.60;99.90
23207;DHT22;11773;52.570;13.052;2023-03-14T11:16:22;14.60;99.90
23207;DHT22;11773;52.570;13.052;2023-03-14T11:27:48;14.50;99.90
23207;DHT22;11773;52.570;13.052;2023-03-14T11:30:33;14.50;99.90
23207;DHT22;11773;52.570;13.052;2023-03-14T11:33:25;14.50;99.90
23207;DHT22;11773;52.570;13.052;2023-03-14T11:36:11;14.40;99.90
23207;DHT22;11773;52.570;13.052;2023-03-14T11:38:50;14.60;99.90
23207;DHT22;11773;52.570;13.052;2023-03-14T11:44:09;14.70;99.90
23207;DHT22;11773;52.570;13.052;2023-03-14T11:46:50;14.70;99.90
23207;DHT22;11773;52.570;13.052;2023-03-14T11:49:27;14.70;99.90
23207;DHT22;11773;52.570;13.052;2023-03-14T11:52:21;14.50;99.90
23207;DHT22;11773;52.570;13.052;2023-03-14T11:55:12;14.40;99.90
23207;DHT22;11773;52.570;13.052;2023-03-14T11:58:09;14.30;99.90
23207;DHT22;11773;52.570;13.052;2023-03-14T12:00:33;14.30;99.90
23207;DHT22;11773;52.570;13.052;2023-03-14T12:06:20;14.40;99.90
23207;DHT22;11773;52.570;13.052;2023-03-14T12:08:58;14.30;99.90
23207;DHT22;11773;52.570;13.052;2023-03-14T12:11:52;14.40;99.90
23207;DHT22;11773;52.570;13.052;2023-03-14T12:14:32;14.50;99.90
23207;DHT22;11773;52.570;13.052;2023-03-14T12:17:18;14.70;99.90
23207;DHT22;11773;52.570;13.052;2023-03-14T12:20:15;14.70;99.90
23207;DHT22;11773;52.570;13.052;2023-03-14T12:22:43;14.90;99.90
23207;DHT22;11773;52.570;13.052;2023-03-14T12:25:25;14.90;99.90
23207;DHT22;11773;52.570;13.052;2023-03-14T12:30:41;15.10;99.90
23207;DHT22;11773;52.570;13.052;2023-03-14T12:33:19;15.10;99.90
23207;DHT22;11773;52.570;13.052;2023-03-14T12:35:52;15.00;99.90
23207;DHT22;11773;52.570;13.052;2023-03-14T12:38:37;14.80;99.90
23207;DHT22;11773;52.570;13.052;2023-03-14T12:41:15;14.90;99.90
23207;DHT22;11773;52.570;13.052;2023-03-14T12:43:49;14.90;99.90
23207;DHT22;11773;52.570;13.052;2023-03-14T12:46:27;14.80;99.90
23207;DHT22;11773;52.570;13.052;2023-03-14T12:51:44;14.90;99.90
23207;DHT22;11773;52.570;13.052;2023-03-14T12:54:29;15.00;99.90
23207;DHT22;11773;52.570;13.052;2023-03-14T13:00:02;15.10;99.90
23207;DHT22;11773;52.570;13.052;2023-03-14T13:02:44;15.00;99.90
23207;DHT22;11773;52.570;13.052;2023-03-14T13:05:20;15.20;99.90
23207;DHT22;11773;52.570;13.052;2023-03-14T13:10:30;15.60;99.90
23207;DHT22;11773;52.570;13.052;2023-03-14T13:13:22;15.50;99.90
23207;DHT22;11773;52.570;13.052;2023-03-14T13:15:56;15.50;99.90
23207;DHT22;11773;52.570;13.052;2023-03-14T13:18:38;15.50;99.90
23207;DHT22;11773;52.570;13.052;2023-03-14T13:21:24;15.60;99.90
23207;DHT22;11773;52.570;13.052;2023-03-14T13:24:03;15.60;99.90
23207;DHT22;11773;52.570;13.052;2023-03-14T13:26:42;15.70;99.90
23207;DHT22;11773;52.570;13.052;2023-03-14T13:29:23;15.60;99.90
23207;DHT22;11773;52.570;13.052;2023-03-14T13:32:00;15.40;99.90
23207;DHT22;11773;52.570;13.052;2023-03-14T13:34:32;15.40;99.90
23207;DHT22;11773;52.570;13.052;2023-03-14T13:37:03;15.50;99.90
23207;DHT22;11773;52.570;13.052;2023-03-14T13:39:32;15.50;99.90
23207;DHT22;11773;52.570;13.052;2023-03-14T13:42:02;15.50;99.90
23207;DHT22;11773;52.570;13.052;2023-03-14T13:44:36;15.60;99.90
23207;DHT22;11773;52.570;13.052;2023-03-14T13:47:13;15.50;99.90
23207;DHT22;11773;52.570;13.052;2023-03-14T13:49:46;15.50;99.90
23207;DHT22;11773;52.570;13.052;2023-03-14T13:52:29;15.50;99.90
23207;DHT22;11773;52.570;13.052;2023-03-14T13:55:00;15.50;99.90
23207;DHT22;11773;52.570;13.052;2023-03-14T13:57:48;15.60;99.90
23207;DHT22;11773;52.570;13.052;2023-03-14T14:00:25;15.50;99.90
23207;DHT22;11773;52.570;13.052;2023-03-14T14:02:58;15.40;99.90
23207;DHT22;11773;52.570;13.052;2023-03-14T14:05:29;15.30;99.90
23207;DHT22;11773;52.570;13.052;2023-03-14T14:08:03;15.20;99.90
23207;DHT22;11773;52.570;13.052;2023-03-14T14:10:41;15.20;99.90
23207;DHT22;11773;52.570;13.052;2023-03-14T14:13:13;15.20;99.90
23207;DHT22;11773;52.570;13.052;2023-03-14T14:15:48;15.10;99.90
23207;DHT22;11773;52.570;13.052;2023-03-14T14:18:23;15.20;99.90
23207;DHT22;11773;52.570;13.052;2023-03-14T14:20:55;15.10;99.90
23207;DHT22;11773;52.570;13.052;2023-03-14T14:23:26;14.80;99.90
23207;DHT22;11773;52.570;13.052;2023-03-14T14:25:59;14.60;99.90
23207;DHT22;11773;52.570;13.052;2023-03-14T14:28:31;14.60;99.90
23207;DHT22;11773;52.570;13.052;2023-03-14T14:31:18;14.60;99.90
23207;DHT22;11773;52.570;13.052;2023-03-14T14:33:58;14.80;99.90
23207;DHT22;11773;52.570;13.052;2023-03-14T14:36:37;14.80;99.90
23207;DHT22;11773;52.570;13.052;2023-03-14T14:39:23;15.00;99.90
23207;DHT22;11773;52.570;13.052;2023-03-14T14:41:54;14.90;99.90
23207;DHT22;11773;52.570;13.052;2023-03-14T14:44:34;14.80;99.90
23207;DHT22;11773;52.570;13.052;2023-03-14T14:47:05;14.80;99.90
23207;DHT22;11773;52.570;13.052;2023-03-14T14:49:34;14.80;99.90
23207;DHT22;11773;52.570;13.052;2023-03-14T14:52:11;14.70;99.90
23207;DHT22;11773;52.570;13.052;2023-03-14T14:54:52;14.50;99.90
23207;DHT22;11773;52.570;13.052;2023-03-14T14:57:36;12.90;99.90
23207;DHT22;11773;52.570;13.052;2023-03-14T15:00:09;11.10;99.90
23207;DHT22;11773;52.570;13.052;2023-03-14T15:02:50;10.70;99.90
23207;DHT22;11773;52.570;13.052;2023-03-14T15:05:25;10.40;99.90
23207;DHT22;11773;52.570;13.052;2023-03-14T15:07:57;9.90;99.90
23207;DHT22;11773;52.570;13.052;2023-03-14T15:10:26;9.50;99.90
23207;DHT22;11773;52.570;13.052;2023-03-14T15:12:56;9.30;99.90
23207;DHT22;11773;52.570;13.052;2023-03-14T15:15:25;9.40;99.90
23207;DHT22;11773;52.570;13.052;2023-03-14T15:17:55;9.20;99.90
23207;DHT22;11773;52.570;13.052;2023-03-14T15:20:24;8.90;99.90
23207;DHT22;11773;52.570;13.052;2023-03-14T15:22:54;8.90;99.90
23207;DHT22;11773;52.570;13.052;2023-03-14T15:25:23;8.60;99.90
23207;DHT22;11773;52.570;13.052;2023-03-14T15:27:54;8.60;99.90
23207;DHT22;11773;52.570;13.052;2023-03-14T15:30:24;8.80;99.90
23207;DHT22;11773;52.570;13.052;2023-03-14T15:32:53;8.50;99.90
23207;DHT22;11773;52.570;13.052;2023-03-14T15:35:23;7.90;99.90
23207;DHT22;11773;52.570;13.052;2023-03-14T15:37:52;7.50;99.90
23207;DHT22;11773;52.570;13.052;2023-03-14T15:40:24;7.40;99.90
23207;DHT22;11773;52.570;13.052;2023-03-14T15:42:55;7.80;99.90
23207;DHT22;11773;52.570;13.052;2023-03-14T15:45:25;7.70;99.90
23207;DHT22;11773;52.570;13.052;2023-03-14T15:47:54;7.30;99.90
23207;DHT22;11773;52.570;13.052;2023-03-14T15:50:24;7.20;99.90
23207;DHT22;11773;52.570;13.052;2023-03-14T15:52:53;7.30;99.90
23207;DHT22;11773;52.570;13.052;2023-03-14T15:55:23;7.10;99.90
23207;DHT22;11773;52.570;13.052;2023-03-14T15:57:53;6.90;99.90
23207;DHT22;11773;52.570;13.052;2023-03-14T16:00:23;6.90;99.90
23207;DHT22;11773;52.570;13.052;2023-03-14T16:02:54;6.90;99.90
23207;DHT22;11773;52.570;13.052;2023-03-14T16:05:23;6.70;99.90
23207;DHT22;11773;52.570;13.052;2023-03-14T16:07:53;6.80;99.90
23207;DHT22;11773;52.570;13.052;2023-03-14T16:10:22;6.70;99.90
23207;DHT22;11773;52.570;13.052;2023-03-14T16:12:52;6.90;99.90
23207;DHT22;11773;52.570;13.052;2023-03-14T16:15:21;6.60;99.90
23207;DHT22;11773;52.570;13.052;2023-03-14T16:17:53;6.40;99.90
23207;DHT22;11773;52.570;13.052;2023-03-14T16:20:23;6.60;99.90
23207;DHT22;11773;52.570;13.052;2023-03-14T16:22:55;6.70;99.90
23207;DHT22;11773;52.570;13.052;2023-03-14T16:25:24;6.80;99.90
23207;DHT22;11773;52.570;13.052;2023-03-14T16:27:54;6.80;99.90
23207;DHT22;11773;52.570;13.052;2023-03-14T16:30:25;6.60;99.90
23207;DHT22;11773;52.570;13.052;2023-03-14T16:32:54;6.60;99.90